Terminal Aerodrome Forecast
Issued by NWS

Home | Current Version | Previous Version | Text Only | Print | Product List | Glossary On
Versions: 1 2 3 4 5 6 7 8 9 10 11 12 13 14
000
FTUS43 KICT 161603 AAB
TAFSLN
TAF AMD
KSLN 161603Z 1616/1712 34008KT 1SM BR OVC003
      TEMPO 1616/1618 3SM -RA BR SCT003 OVC006
     FM161800 35011KT P6SM OVC006
     FM162300 32013KT P6SM OVC008=

USA.gov is the U.S. government's official web portal to all federal, state and local government web resources and services.